Senyomaru — JI3557 — position and weather

sailwx.info

Track history (hours):
 
Tides and Currents Weather Stations Pressure Air Temp Water Temp Dewpoint Dewpoint Depression Visibility Wind Speed Wind Dir Waves Ship Positions

Senyomaru

Last reported at 2015-Jul-01 09:11 UTC. Time now 2015-Jul-05 23:14 UTC.
Position N 34°35' E 134°51'.

Length 69 m; draft 4 m.

Type: Tanker. MMSI: 431300188.

Date/timePositionNaut miles runAvg speedWind from/ knotsBaromVisibWave heightAir tempDewpointWater temp
2015-Jul-01 09:11N 34°35' E 134°51'913.6
2015-Jul-01 08:33N 34°37' E 135°01'1212.2
2015-Jul-01 07:33N 34°35' E 135°15'8 8.3
2015-Jul-01 06:32N 34°33' E 135°25'0 0.0
2015-Jun-30 22:27N 34°33' E 135°26'2 2.7
2015-Jun-30 21:33N 34°34' E 135°23'0 0.0
2015-Jun-30 20:09N 34°34' E 135°23'0 0.1
2015-Jun-30 19:25N 34°34' E 135°23'0 0.0
2015-Jun-30 17:33N 34°34' E 135°23'0 0.0
2015-Jun-30 16:33N 34°34' E 135°23'0 0.0
2015-Jun-30 15:33N 34°34' E 135°23'0 0.0
2015-Jun-30 14:29N 34°34' E 135°23'0 0.0
2015-Jun-30 13:33N 34°34' E 135°23'0 0.0
2015-Jun-30 12:29N 34°34' E 135°23'0 0.0
2015-Jun-30 11:23N 34°34' E 135°23'0 0.0
2015-Jun-30 10:32N 34°34' E 135°23'0 0.1
2015-Jun-30 09:33N 34°34' E 135°23'0 0.1
2015-Jun-30 08:33N 34°34' E 135°23'0 0.0
2015-Jun-30 07:33N 34°34' E 135°23'0 0.0
2015-Jun-30 06:28N 34°34' E 135°23'0 0.0
2015-Jun-30 05:33N 34°34' E 135°23'0 0.0
2015-Jun-30 04:23N 34°34' E 135°23'0 0.1
2015-Jun-30 03:33N 34°34' E 135°23'0 0.0
2015-Jun-30 02:33N 34°34' E 135°23'0 0.1
2015-Jun-30 01:30N 34°34' E 135°23'0 0.0
2015-Jun-30 00:26N 34°34' E 135°23'0 0.1
2015-Jun-29 23:33N 34°34' E 135°23'0 0.0
2015-Jun-29 22:32N 34°34' E 135°23'9 9.1
2015-Jun-29 21:32N 34°34' E 135°12'1211.1
2015-Jun-29 20:26N 34°36' E 134°57'1 0.0
2015-Jun-28 08:33N 34°37' E 134°56'1312.9
2015-Jun-28 07:34N 34°35' E 135°11'1211.5
2015-Jun-28 06:32N 34°33' E 135°25'0 0.2
2015-Jun-28 05:33N 34°33' E 135°26'0 0.0
2015-Jun-28 04:33N 34°33' E 135°26'0 0.0
2015-Jun-28 03:33N 34°33' E 135°26'0 0.0
2015-Jun-28 02:34N 34°33' E 135°26'0 0.0
2015-Jun-28 01:33N 34°33' E 135°26'0 0.0
2015-Jun-28 00:33N 34°33' E 135°26'0 0.0
2015-Jun-27 23:34N 34°33' E 135°26'2 2.2
2015-Jun-27 22:33N 34°34' E 135°23'0 0.1
2015-Jun-27 21:32N 34°34' E 135°23'3 2.7
2015-Jun-27 20:33N 34°34' E 135°20'1312.6
2015-Jun-27 19:34N 34°35' E 135°05'  
2015-Jun-25 11:11N 34°36' E 134°55'710.5
2015-Jun-25 10:33N 34°36' E 135°03'1111.6
2015-Jun-25 09:33N 34°35' E 135°16'8 7.7
2015-Jun-25 08:33N 34°33' E 135°26'0 0.0
2015-Jun-25 07:17N 34°33' E 135°26'0 0.0
2015-Jun-25 00:09N 34°33' E 135°26'0 0.0
2015-Jun-24 23:19N 34°33' E 135°26'2 3.0
2015-Jun-24 22:33N 34°34' E 135°23'0 0.1
2015-Jun-24 20:28N 34°34' E 135°23'0 0.0
2015-Jun-24 19:16N 34°34' E 135°23'0 0.0
2015-Jun-24 17:10N 34°34' E 135°23'0 0.1
2015-Jun-24 16:28N 34°34' E 135°23'0 0.0
2015-Jun-24 15:22N 34°34' E 135°23'0 0.0
2015-Jun-24 13:22N 34°34' E 135°23'0 0.0
2015-Jun-24 11:22N 34°34' E 135°23'0 0.0
2015-Jun-24 10:28N 34°34' E 135°23'0 0.0
2015-Jun-24 09:28N 34°34' E 135°23'0 0.0
2015-Jun-24 08:04N 34°34' E 135°23'0 0.0
2015-Jun-24 07:22N 34°34' E 135°23'0 0.0
2015-Jun-24 06:28N 34°34' E 135°23'5 5.8
2015-Jun-24 05:33N 34°34' E 135°17'1312.0
2015-Jun-24 04:28N 34°37' E 135°01'  
Track history (hours):
 
Tides and Currents Weather Stations Pressure Air Temp Water Temp Dewpoint Dewpoint Depression Visibility Wind Speed Wind Dir Waves Ship Positions

Senyomaru

Last reported at 2015-Jul-01 09:11 UTC. Time now 2015-Jul-05 23:14 UTC.
Position N 34°35' E 134°51'.

Length 69 m; draft 4 m.

Type: Tanker. MMSI: 431300188.

Date/timePositionNaut miles runAvg speedWind from/ knotsBaromVisibWave heightAir tempDewpointWater temp
2015-Jul-01 09:11N 34°35' E 134°51'913.6
2015-Jul-01 08:33N 34°37' E 135°01'1212.2
2015-Jul-01 07:33N 34°35' E 135°15'8 8.3
2015-Jul-01 06:32N 34°33' E 135°25'0 0.0
2015-Jun-30 22:27N 34°33' E 135°26'2 2.7
2015-Jun-30 21:33N 34°34' E 135°23'0 0.0
2015-Jun-30 20:09N 34°34' E 135°23'0 0.1
2015-Jun-30 19:25N 34°34' E 135°23'0 0.0
2015-Jun-30 17:33N 34°34' E 135°23'0 0.0
2015-Jun-30 16:33N 34°34' E 135°23'0 0.0
2015-Jun-30 15:33N 34°34' E 135°23'0 0.0
2015-Jun-30 14:29N 34°34' E 135°23'0 0.0
2015-Jun-30 13:33N 34°34' E 135°23'0 0.0
2015-Jun-30 12:29N 34°34' E 135°23'0 0.0
2015-Jun-30 11:23N 34°34' E 135°23'0 0.0
2015-Jun-30 10:32N 34°34' E 135°23'0 0.1
2015-Jun-30 09:33N 34°34' E 135°23'0 0.1
2015-Jun-30 08:33N 34°34' E 135°23'0 0.0
2015-Jun-30 07:33N 34°34' E 135°23'0 0.0
2015-Jun-30 06:28N 34°34' E 135°23'0 0.0
2015-Jun-30 05:33N 34°34' E 135°23'0 0.0
2015-Jun-30 04:23N 34°34' E 135°23'0 0.1
2015-Jun-30 03:33N 34°34' E 135°23'0 0.0
2015-Jun-30 02:33N 34°34' E 135°23'0 0.1
2015-Jun-30 01:30N 34°34' E 135°23'0 0.0
2015-Jun-30 00:26N 34°34' E 135°23'0 0.1
2015-Jun-29 23:33N 34°34' E 135°23'0 0.0
2015-Jun-29 22:32N 34°34' E 135°23'9 9.1
2015-Jun-29 21:32N 34°34' E 135°12'1211.1
2015-Jun-29 20:26N 34°36' E 134°57'1 0.0
2015-Jun-28 08:33N 34°37' E 134°56'1312.9
2015-Jun-28 07:34N 34°35' E 135°11'1211.5
2015-Jun-28 06:32N 34°33' E 135°25'0 0.2
2015-Jun-28 05:33N 34°33' E 135°26'0 0.0
2015-Jun-28 04:33N 34°33' E 135°26'0 0.0
2015-Jun-28 03:33N 34°33' E 135°26'0 0.0
2015-Jun-28 02:34N 34°33' E 135°26'0 0.0
2015-Jun-28 01:33N 34°33' E 135°26'0 0.0
2015-Jun-28 00:33N 34°33' E 135°26'0 0.0
2015-Jun-27 23:34N 34°33' E 135°26'2 2.2
2015-Jun-27 22:33N 34°34' E 135°23'0 0.1
2015-Jun-27 21:32N 34°34' E 135°23'3 2.7
2015-Jun-27 20:33N 34°34' E 135°20'1312.6
2015-Jun-27 19:34N 34°35' E 135°05'  
2015-Jun-25 11:11N 34°36' E 134°55'710.5
2015-Jun-25 10:33N 34°36' E 135°03'1111.6
2015-Jun-25 09:33N 34°35' E 135°16'8 7.7
2015-Jun-25 08:33N 34°33' E 135°26'0 0.0
2015-Jun-25 07:17N 34°33' E 135°26'0 0.0
2015-Jun-25 00:09N 34°33' E 135°26'0 0.0
2015-Jun-24 23:19N 34°33' E 135°26'2 3.0
2015-Jun-24 22:33N 34°34' E 135°23'0 0.1
2015-Jun-24 20:28N 34°34' E 135°23'0 0.0
2015-Jun-24 19:16N 34°34' E 135°23'0 0.0
2015-Jun-24 17:10N 34°34' E 135°23'0 0.1
2015-Jun-24 16:28N 34°34' E 135°23'0 0.0
2015-Jun-24 15:22N 34°34' E 135°23'0 0.0
2015-Jun-24 13:22N 34°34' E 135°23'0 0.0
2015-Jun-24 11:22N 34°34' E 135°23'0 0.0
2015-Jun-24 10:28N 34°34' E 135°23'0 0.0
2015-Jun-24 09:28N 34°34' E 135°23'0 0.0
2015-Jun-24 08:04N 34°34' E 135°23'0 0.0
2015-Jun-24 07:22N 34°34' E 135°23'0 0.0
2015-Jun-24 06:28N 34°34' E 135°23'5 5.8
2015-Jun-24 05:33N 34°34' E 135°17'1312.0
2015-Jun-24 04:28N 34°37' E 135°01'  

Dump ship's entire track history